Time;durP1;ratioP1;P1;durP2;ratioP2;P2;SDS_P1;SDS_P2;PMS_P1;PMS_P2;Temp;Humidity;BMP_temperature;BMP_pressure;BME280_temperature;BME280_humidity;BME280_pressure;Samples;Min_cycle;Max_cycle;Signal;HPM_P1;HPM_P2
2022/01/31 00:01:15;;;;;;;;;;;22.20;25.60;;;;;;5085618;28;20444;-65
2022/01/31 00:03:43;;;;;;;;;;;22.20;25.60;;;;;;5086046;28;20046;-65
2022/01/31 00:06:09;;;;;;;;;;;22.20;25.60;;;;;;5084996;28;19924;-64
2022/01/31 00:08:37;;;;;;;;;;;22.20;25.60;;;;;;5086025;28;19920;-65
2022/01/31 00:11:04;;;;;;;;;;;22.20;25.60;;;;;;5086012;28;20204;-65
2022/01/31 00:13:36;;;;;;;;;;;22.20;25.60;;;;;;5086142;28;19919;-66
2022/01/31 00:16:04;;;;;;;;;;;22.20;25.60;;;;;;5085246;28;20018;-65
2022/01/31 00:18:31;;;;;;;;;;;22.20;25.70;;;;;;5086175;28;19947;-66
2022/01/31 00:20:58;;;;;;;;;;;22.20;25.70;;;;;;5084725;28;19999;-65
2022/01/31 00:23:25;;;;;;;;;;;22.20;25.70;;;;;;5086202;28;19926;-65
2022/01/31 00:25:52;;;;;;;;;;;22.20;25.70;;;;;;5085675;28;19920;-64
2022/01/31 00:28:19;;;;;;;;;;;22.20;25.70;;;;;;5086031;28;20064;-65
2022/01/31 00:30:46;;;;;;;;;;;22.20;25.70;;;;;;5085804;28;20416;-65
2022/01/31 00:33:13;;;;;;;;;;;22.20;25.70;;;;;;5085294;28;20369;-65
2022/01/31 00:35:40;;;;;;;;;;;22.20;25.80;;;;;;5085591;28;20369;-65
2022/01/31 00:38:07;;;;;;;;;;;22.20;25.80;;;;;;5086200;28;19948;-65
2022/01/31 00:40:38;;;;;;;;;;;22.20;25.80;;;;;;5085086;28;19973;-65
2022/01/31 00:43:06;;;;;;;;;;;22.20;26.20;;;;;;5085411;28;20420;-65
2022/01/31 00:45:42;;;;;;;;;;;22.20;25.80;;;;;;5085242;28;20026;-65
2022/01/31 00:48:18;;;;;;;;;;;22.20;25.80;;;;;;5086544;28;19920;-65
2022/01/31 00:50:47;;;;;;;;;;;22.10;25.80;;;;;;5084475;28;19958;-65
2022/01/31 00:53:14;;;;;;;;;;;22.10;25.80;;;;;;5085822;28;20024;-65
2022/01/31 00:55:41;;;;;;;;;;;22.10;25.80;;;;;;5085618;28;19977;-65
2022/01/31 00:58:08;;;;;;;;;;;22.10;25.80;;;;;;5085196;28;19924;-65
2022/01/31 01:00:35;;;;;;;;;;;22.10;25.80;;;;;;5085991;28;19955;-65
2022/01/31 01:03:03;;;;;;;;;;;22.10;25.80;;;;;;5085469;28;20327;-65
2022/01/31 01:05:30;;;;;;;;;;;22.10;25.80;;;;;;5085420;28;20385;-64
2022/01/31 01:07:57;;;;;;;;;;;22.10;25.80;;;;;;5085375;28;20458;-65
2022/01/31 01:10:27;;;;;;;;;;;22.10;25.80;;;;;;5085511;28;19943;-65
2022/01/31 01:12:54;;;;;;;;;;;22.10;25.90;;;;;;5089393;28;19966;-65
2022/01/31 01:15:21;;;;;;;;;;;22.10;25.90;;;;;;5088909;28;19942;-65
2022/01/31 01:17:48;;;;;;;;;;;22.10;25.90;;;;;;5089108;28;19973;-65
2022/01/31 01:20:15;;;;;;;;;;;22.20;25.90;;;;;;5088894;28;20444;-65
2022/01/31 01:22:44;;;;;;;;;;;22.10;25.90;;;;;;5088718;28;19928;-65
2022/01/31 01:25:12;;;;;;;;;;;22.10;25.90;;;;;;5088995;28;20380;-65
2022/01/31 01:27:41;;;;;;;;;;;22.20;25.90;;;;;;5089040;28;19963;-65
2022/01/31 01:30:10;;;;;;;;;;;22.10;25.90;;;;;;5089469;28;19959;-65
2022/01/31 01:32:48;;;;;;;;;;;22.10;25.90;;;;;;5088721;28;19959;-65
2022/01/31 01:35:15;;;;;;;;;;;22.20;25.90;;;;;;5088936;28;20254;-65
2022/01/31 01:37:42;;;;;;;;;;;22.10;25.90;;;;;;5088445;28;20014;-67
2022/01/31 01:40:09;;;;;;;;;;;22.10;25.90;;;;;;5088604;28;19966;-65
2022/01/31 01:42:36;;;;;;;;;;;22.10;25.90;;;;;;5089387;28;20184;-65
2022/01/31 01:45:03;;;;;;;;;;;22.10;25.90;;;;;;5088780;28;20019;-65
2022/01/31 01:47:30;;;;;;;;;;;22.10;25.90;;;;;;5088512;28;20399;-65
2022/01/31 01:49:57;;;;;;;;;;;22.10;25.90;;;;;;5088632;28;19965;-65
2022/01/31 01:52:24;;;;;;;;;;;22.10;26.00;;;;;;5088056;28;19974;-65
2022/01/31 01:54:51;;;;;;;;;;;22.10;26.00;;;;;;5089240;28;19958;-65
2022/01/31 01:57:20;;;;;;;;;;;22.10;26.00;;;;;;5088430;28;19956;-65
2022/01/31 01:59:47;;;;;;;;;;;22.10;26.00;;;;;;5088944;28;19924;-65
2022/01/31 02:02:14;;;;;;;;;;;22.10;26.00;;;;;;5088528;28;20014;-65
2022/01/31 02:04:43;;;;;;;;;;;22.10;26.00;;;;;;5088422;28;20010;-65
2022/01/31 02:07:12;;;;;;;;;;;22.10;26.00;;;;;;5087967;28;19970;-65
2022/01/31 02:09:44;;;;;;;;;;;22.10;26.00;;;;;;5070120;28;20327;-65
2022/01/31 02:12:12;;;;;;;;;;;22.10;26.10;;;;;;5070331;28;20040;-65
2022/01/31 02:14:39;;;;;;;;;;;22.10;26.10;;;;;;5088017;28;20224;-65
2022/01/31 02:17:06;;;;;;;;;;;22.10;26.10;;;;;;5087850;28;19920;-65
2022/01/31 02:19:33;;;;;;;;;;;22.00;26.10;;;;;;5088560;28;19920;-65
2022/01/31 02:22:00;;;;;;;;;;;22.00;26.10;;;;;;5069473;28;20585;-65
2022/01/31 02:24:30;;;;;;;;;;;22.00;26.10;;;;;;5087919;28;20289;-65
2022/01/31 02:26:57;;;;;;;;;;;22.10;26.10;;;;;;5087396;28;19972;-65
2022/01/31 02:29:24;;;;;;;;;;;22.00;26.10;;;;;;5088064;28;20022;-65
2022/01/31 02:31:51;;;;;;;;;;;22.00;26.10;;;;;;5087770;28;20342;-67
2022/01/31 02:34:18;;;;;;;;;;;22.00;26.10;;;;;;5069477;28;19926;-65
2022/01/31 02:36:45;;;;;;;;;;;22.00;26.10;;;;;;5088112;28;20315;-65
2022/01/31 02:39:12;;;;;;;;;;;22.00;26.20;;;;;;5087728;28;20260;-65
2022/01/31 02:41:40;;;;;;;;;;;22.00;26.20;;;;;;5087790;28;20141;-65
2022/01/31 02:44:14;;;;;;;;;;;22.00;26.20;;;;;;5081748;28;20377;-65
2022/01/31 02:46:48;;;;;;;;;;;22.00;26.20;;;;;;5086196;28;20581;-65
2022/01/31 02:49:18;;;;;;;;;;;22.00;26.20;;;;;;5087894;28;20364;-65
2022/01/31 02:51:49;;;;;;;;;;;22.00;26.20;;;;;;5086534;28;19930;-65
2022/01/31 02:54:16;;;;;;;;;;;22.00;26.20;;;;;;5088271;28;20239;-65
2022/01/31 02:56:43;;;;;;;;;;;22.00;26.20;;;;;;5087451;28;19920;-65
2022/01/31 02:59:10;;;;;;;;;;;22.00;26.20;;;;;;5087018;28;20630;-65
2022/01/31 03:01:37;;;;;;;;;;;21.90;26.20;;;;;;5086646;28;19920;-65
2022/01/31 03:04:04;;;;;;;;;;;21.90;26.20;;;;;;5086780;28;19960;-64
2022/01/31 03:06:31;;;;;;;;;;;21.90;26.20;;;;;;5087352;28;19955;-65
2022/01/31 03:08:58;;;;;;;;;;;21.90;26.20;;;;;;5086869;28;19985;-65
2022/01/31 03:11:26;;;;;;;;;;;21.90;26.20;;;;;;5086983;28;19955;-65
2022/01/31 03:13:52;;;;;;;;;;;21.90;26.20;;;;;;5087202;28;20252;-65
2022/01/31 03:16:20;;;;;;;;;;;21.90;26.20;;;;;;5087057;28;19920;-65
2022/01/31 03:18:47;;;;;;;;;;;21.90;26.20;;;;;;5096740;28;19970;-65
2022/01/31 03:21:14;;;;;;;;;;;21.90;26.20;;;;;;5105743;28;20140;-65
2022/01/31 03:23:43;;;;;;;;;;;21.90;26.20;;;;;;5099601;28;19955;-65
2022/01/31 03:26:09;;;;;;;;;;;21.90;26.20;;;;;;5086835;28;20441;-65
2022/01/31 03:28:36;;;;;;;;;;;22.00;26.30;;;;;;5086699;28;19958;-65
2022/01/31 03:31:03;;;;;;;;;;;22.00;26.30;;;;;;5087325;28;20385;-65
2022/01/31 03:33:32;;;;;;;;;;;22.00;26.30;;;;;;5086569;28;19977;-65
2022/01/31 03:35:59;;;;;;;;;;;22.00;26.30;;;;;;5086602;28;19920;-65
2022/01/31 03:38:26;;;;;;;;;;;21.90;26.20;;;;;;5086077;28;20253;-65
2022/01/31 03:40:53;;;;;;;;;;;22.00;26.30;;;;;;5086965;28;19985;-65
2022/01/31 03:43:20;;;;;;;;;;;22.00;26.30;;;;;;5086373;28;19955;-65
2022/01/31 03:45:47;;;;;;;;;;;22.00;26.30;;;;;;5068232;28;19920;-65
2022/01/31 03:48:14;;;;;;;;;;;22.00;26.30;;;;;;5086308;28;20137;-65
2022/01/31 03:50:41;;;;;;;;;;;21.90;26.30;;;;;;5086049;28;20046;-65
2022/01/31 03:53:08;;;;;;;;;;;21.90;26.30;;;;;;5085490;28;20680;-65
2022/01/31 03:55:35;;;;;;;;;;;21.90;26.30;;;;;;5086271;28;20373;-65
2022/01/31 03:58:02;;;;;;;;;;;21.90;26.30;;;;;;5085927;28;19928;-65
2022/01/31 04:00:29;;;;;;;;;;;21.90;26.30;;;;;;5086852;28;20164;-65
2022/01/31 04:02:56;;;;;;;;;;;21.90;26.30;;;;;;5086353;28;20185;-65
2022/01/31 04:05:23;;;;;;;;;;;21.90;26.30;;;;;;5086234;28;19923;-65
2022/01/31 04:07:50;;;;;;;;;;;21.90;26.30;;;;;;5086099;28;19923;-64
2022/01/31 04:10:17;;;;;;;;;;;21.90;26.30;;;;;;5085720;28;20191;-65
2022/01/31 04:12:50;;;;;;;;;;;21.90;26.40;;;;;;5085531;28;19959;-65
2022/01/31 04:15:17;;;;;;;;;;;21.80;26.30;;;;;;5085989;28;19974;-65
2022/01/31 04:17:45;;;;;;;;;;;21.80;26.30;;;;;;5085825;28;19990;-64
2022/01/31 04:20:12;;;;;;;;;;;21.90;26.40;;;;;;5086189;28;20047;-64
2022/01/31 04:22:52;;;;;;;;;;;21.80;26.40;;;;;;5085432;28;19920;-65
2022/01/31 04:25:43;;;;;;;;;;;21.80;26.40;;;;;;5086253;28;19955;-65
2022/01/31 04:28:31;;;;;;;;;;;21.80;26.40;;;;;;5085745;28;19963;-65
2022/01/31 04:31:12;;;;;;;;;;;21.80;26.40;;;;;;5084881;28;20022;-65
2022/01/31 04:33:40;;;;;;;;;;;21.80;26.40;;;;;;5085585;28;19920;-65
2022/01/31 04:36:07;;;;;;;;;;;21.80;26.40;;;;;;5084090;28;19963;-64
2022/01/31 04:38:34;;;;;;;;;;;21.80;26.40;;;;;;5085842;28;20341;-65
2022/01/31 04:41:01;;;;;;;;;;;21.80;26.40;;;;;;5085283;28;20526;-65
2022/01/31 04:43:28;;;;;;;;;;;21.80;26.40;;;;;;5084038;28;19927;-65
2022/01/31 04:45:59;;;;;;;;;;;21.80;26.50;;;;;;5085654;28;20031;-65
2022/01/31 04:48:27;;;;;;;;;;;21.80;26.40;;;;;;5092043;28;19926;-65
2022/01/31 04:50:54;;;;;;;;;;;21.80;26.50;;;;;;5089619;28;19988;-64
2022/01/31 04:53:21;;;;;;;;;;;21.80;26.40;;;;;;5087801;28;20018;-65
2022/01/31 04:55:48;;;;;;;;;;;21.80;26.40;;;;;;5089748;28;20133;-64
2022/01/31 04:58:15;;;;;;;;;;;21.80;26.50;;;;;;5089693;28;20018;-65
2022/01/31 05:00:42;;;;;;;;;;;21.80;26.50;;;;;;5088464;28;20213;-65
2022/01/31 05:03:14;;;;;;;;;;;21.70;26.40;;;;;;5089698;28;20352;-65
2022/01/31 05:05:41;;;;;;;;;;;21.80;26.50;;;;;;5087968;28;19955;-64
2022/01/31 05:08:09;;;;;;;;;;;21.70;26.50;;;;;;5089153;28;20010;-64
2022/01/31 05:10:42;;;;;;;;;;;21.70;26.50;;;;;;5087468;28;20010;-65
2022/01/31 05:13:09;;;;;;;;;;;21.70;26.50;;;;;;5089912;28;20019;-65
2022/01/31 05:15:36;;;;;;;;;;;21.70;26.50;;;;;;5089176;28;20229;-65
2022/01/31 05:18:03;;;;;;;;;;;21.70;26.50;;;;;;5089299;28;20179;-64
2022/01/31 05:20:30;;;;;;;;;;;21.70;26.50;;;;;;5088578;28;19959;-65
2022/01/31 05:22:57;;;;;;;;;;;21.80;26.50;;;;;;5096001;28;20014;-65
2022/01/31 05:25:24;;;;;;;;;;;21.80;26.50;;;;;;5089608;28;19923;-65
2022/01/31 05:27:51;;;;;;;;;;;21.80;26.50;;;;;;5088634;28;19975;-65
2022/01/31 05:30:18;;;;;;;;;;;21.80;26.50;;;;;;5087015;28;20014;-65
2022/01/31 05:32:45;;;;;;;;;;;21.80;26.50;;;;;;5089529;28;20015;-65
2022/01/31 05:35:12;;;;;;;;;;;21.80;26.50;;;;;;5087480;28;19920;-65
2022/01/31 05:37:40;;;;;;;;;;;21.80;26.50;;;;;;5086370;28;20046;-65
2022/01/31 05:40:07;;;;;;;;;;;21.80;26.50;;;;;;5088417;28;19926;-65
2022/01/31 05:42:34;;;;;;;;;;;21.80;26.50;;;;;;5088428;28;19932;-65
2022/01/31 05:45:01;;;;;;;;;;;21.80;26.50;;;;;;5086828;28;19927;-64
2022/01/31 05:47:28;;;;;;;;;;;21.80;26.50;;;;;;5085680;28;20139;-65
2022/01/31 05:49:55;;;;;;;;;;;21.80;26.50;;;;;;5085075;28;19928;-65
2022/01/31 05:52:22;;;;;;;;;;;21.80;26.50;;;;;;5087358;28;19958;-65
2022/01/31 05:54:54;;;;;;;;;;;21.80;26.50;;;;;;5084477;28;20300;-65
2022/01/31 05:57:21;;;;;;;;;;;21.70;26.50;;;;;;5083553;28;19920;-65
2022/01/31 05:59:48;;;;;;;;;;;21.70;26.50;;;;;;5087703;28;19972;-65
2022/01/31 06:02:15;;;;;;;;;;;21.70;26.50;;;;;;5086840;28;20004;-65
2022/01/31 06:04:42;;;;;;;;;;;21.70;26.50;;;;;;5086498;28;20018;-65
2022/01/31 06:07:09;;;;;;;;;;;21.70;26.50;;;;;;5076763;28;20022;-65
2022/01/31 06:09:37;;;;;;;;;;;21.70;26.50;;;;;;5085190;28;20412;-65
2022/01/31 06:12:04;;;;;;;;;;;21.70;26.40;;;;;;5063799;28;20010;-65
2022/01/31 06:14:32;;;;;;;;;;;21.70;26.40;;;;;;5086418;28;19973;-66
2022/01/31 06:16:59;;;;;;;;;;;21.60;26.40;;;;;;5094386;28;19963;-64
2022/01/31 06:19:26;;;;;;;;;;;21.60;26.30;;;;;;5079887;28;19931;-64
2022/01/31 06:21:52;;;;;;;;;;;21.60;26.30;;;;;;5076230;28;20412;-65
2022/01/31 06:24:19;;;;;;;;;;;21.70;26.30;;;;;;5083607;28;20019;-64
2022/01/31 06:26:46;;;;;;;;;;;21.70;26.50;;;;;;5084661;28;19924;-64
2022/01/31 06:29:14;;;;;;;;;;;21.70;26.40;;;;;;5087040;28;20288;-64
2022/01/31 06:31:41;;;;;;;;;;;21.70;26.40;;;;;;5083476;28;20005;-64
2022/01/31 06:34:08;;;;;;;;;;;21.80;26.40;;;;;;5085831;28;19967;-64
2022/01/31 06:36:35;;;;;;;;;;;21.80;26.40;;;;;;5081510;28;19924;-66
2022/01/31 06:39:03;;;;;;;;;;;21.90;26.40;;;;;;5087554;28;20016;-63
2022/01/31 06:41:30;;;;;;;;;;;21.90;26.40;;;;;;5082563;28;19949;-64
2022/01/31 06:43:57;;;;;;;;;;;22.00;26.50;;;;;;5086916;28;19942;-68
2022/01/31 06:46:24;;;;;;;;;;;22.00;26.40;;;;;;5081860;28;19928;-68
2022/01/31 06:48:52;;;;;;;;;;;22.10;26.40;;;;;;5064189;28;19928;-68
2022/01/31 06:51:19;;;;;;;;;;;22.10;26.30;;;;;;5081087;28;20027;-64
2022/01/31 06:53:54;;;;;;;;;;;22.20;26.20;;;;;;5086321;28;19928;-66
2022/01/31 06:56:28;;;;;;;;;;;22.20;26.20;;;;;;5082246;28;19967;-64
2022/01/31 06:58:56;;;;;;;;;;;22.30;26.10;;;;;;5084446;28;19963;-64
2022/01/31 07:01:25;;;;;;;;;;;22.30;26.10;;;;;;5077026;28;20386;-64
2022/01/31 07:04:09;;;;;;;;;;;22.40;26.10;;;;;;5084258;28;19946;-64
2022/01/31 07:06:36;;;;;;;;;;;22.40;26.10;;;;;;5082093;28;19928;-65
2022/01/31 07:09:03;;;;;;;;;;;22.50;26.10;;;;;;5080697;28;19967;-65
2022/01/31 07:11:35;;;;;;;;;;;22.60;26.10;;;;;;5085738;28;19991;-66
2022/01/31 07:14:29;;;;;;;;;;;22.60;26.00;;;;;;5085449;28;19974;-69
2022/01/31 07:16:49;;;;;;;;;;;22.70;26.00;;;;;;5082338;28;20004;-69
2022/01/31 07:19:17;;;;;;;;;;;22.80;26.10;;;;;;5083535;28;19973;-66
2022/01/31 07:21:48;;;;;;;;;;;22.80;26.00;;;;;;5083169;28;19967;-66
2022/01/31 07:24:45;;;;;;;;;;;22.90;25.90;;;;;;5086226;28;19924;-66
2022/01/31 07:27:03;;;;;;;;;;;22.90;25.80;;;;;;5083761;28;19950;-66
2022/01/31 07:29:31;;;;;;;;;;;23.00;25.80;;;;;;5075363;28;19953;-68
2022/01/31 07:31:58;;;;;;;;;;;23.00;25.70;;;;;;5086779;28;19928;-68
2022/01/31 07:34:26;;;;;;;;;;;23.10;25.70;;;;;;5085975;28;19923;-64
2022/01/31 07:36:53;;;;;;;;;;;23.10;25.70;;;;;;5088150;28;20002;-64
2022/01/31 07:39:20;;;;;;;;;;;23.20;25.70;;;;;;5087128;28;20021;-63
2022/01/31 07:41:48;;;;;;;;;;;23.20;25.70;;;;;;5085337;28;19957;-65
2022/01/31 07:51:20;;;;;;;;;;;23.40;25.80;;;;;;5078030;28;19923;-62
2022/01/31 07:53:47;;;;;;;;;;;23.50;25.60;;;;;;5093748;28;19923;-63
2022/01/31 07:56:16;;;;;;;;;;;23.60;25.70;;;;;;5107729;28;20164;-65
2022/01/31 07:58:43;;;;;;;;;;;23.60;25.60;;;;;;5086280;28;19951;-64
2022/01/31 08:01:10;;;;;;;;;;;23.70;25.80;;;;;;5083815;28;19935;-63
2022/01/31 08:07:23;;;;;;;;;;;23.70;25.80;;;;;;5088403;28;19976;-64
2022/01/31 08:09:50;;;;;;;;;;;23.70;25.60;;;;;;5087528;28;19920;-65
2022/01/31 08:12:17;;;;;;;;;;;23.70;25.70;;;;;;5083984;28;20006;-66
2022/01/31 08:14:45;;;;;;;;;;;23.80;25.80;;;;;;5087018;28;19963;-67
2022/01/31 08:17:12;;;;;;;;;;;23.70;25.80;;;;;;5089313;28;19924;-68
2022/01/31 08:19:39;;;;;;;;;;;23.80;25.80;;;;;;5070756;28;19928;-67
2022/01/31 08:22:08;;;;;;;;;;;23.70;25.70;;;;;;5084724;28;19967;-67
2022/01/31 08:24:35;;;;;;;;;;;23.80;25.70;;;;;;5087732;28;19923;-68
2022/01/31 08:27:02;;;;;;;;;;;23.70;25.50;;;;;;5088609;28;20428;-68
2022/01/31 08:29:32;;;;;;;;;;;23.80;25.40;;;;;;5089441;28;20280;-68
2022/01/31 08:32:07;;;;;;;;;;;23.80;25.30;;;;;;5087426;28;19973;-69
2022/01/31 08:37:21;;;;;;;;;;;23.80;25.20;;;;;;5090141;28;20004;-69
2022/01/31 08:39:48;;;;;;;;;;;23.80;25.20;;;;;;5088558;28;19920;-69
2022/01/31 08:42:15;;;;;;;;;;;23.80;25.10;;;;;;5085573;28;20034;-64
2022/01/31 08:44:42;;;;;;;;;;;23.80;25.20;;;;;;5091109;28;20007;-64
2022/01/31 08:47:09;;;;;;;;;;;23.90;25.40;;;;;;5089623;28;20416;-66
2022/01/31 08:49:37;;;;;;;;;;;23.90;25.60;;;;;;5089183;28;19981;-65
2022/01/31 08:52:04;;;;;;;;;;;23.90;25.70;;;;;;5085839;28;19997;-64
2022/01/31 08:54:31;;;;;;;;;;;23.90;25.90;;;;;;5087560;28;20030;-65
2022/01/31 08:56:58;;;;;;;;;;;23.90;26.00;;;;;;5088497;28;19923;-65
2022/01/31 08:59:28;;;;;;;;;;;23.90;25.90;;;;;;5088274;28;19970;-68
2022/01/31 09:02:13;;;;;;;;;;;23.90;26.00;;;;;;5088967;28;19985;-65
2022/01/31 09:04:51;;;;;;;;;;;23.90;26.00;;;;;;5086127;28;19920;-68
2022/01/31 09:07:19;;;;;;;;;;;23.90;26.00;;;;;;5088402;28;19952;-64
2022/01/31 09:09:53;;;;;;;;;;;23.90;26.00;;;;;;5088564;28;19928;-63
2022/01/31 09:12:23;;;;;;;;;;;23.90;26.00;;;;;;5070566;28;19935;-64
2022/01/31 09:14:50;;;;;;;;;;;24.00;26.60;;;;;;5060357;28;20320;-64
2022/01/31 09:17:17;;;;;;;;;;;24.10;26.40;;;;;;5084660;28;19924;-65
2022/01/31 09:19:43;;;;;;;;;;;24.00;26.60;;;;;;5090707;28;19970;-65
2022/01/31 09:22:10;;;;;;;;;;;24.10;26.60;;;;;;5079978;28;20335;-63
2022/01/31 09:24:40;;;;;;;;;;;24.10;26.70;;;;;;5085337;28;19924;-64
2022/01/31 09:27:07;;;;;;;;;;;24.10;26.60;;;;;;5082647;28;20022;-65
2022/01/31 09:29:35;;;;;;;;;;;24.20;26.60;;;;;;5085379;28;20430;-64
2022/01/31 09:32:05;;;;;;;;;;;24.20;26.70;;;;;;5084547;28;20456;-68
2022/01/31 09:34:32;;;;;;;;;;;24.20;26.70;;;;;;5087533;28;19935;-71
2022/01/31 09:36:59;;;;;;;;;;;24.20;26.50;;;;;;5066622;28;19974;-68
2022/01/31 09:39:27;;;;;;;;;;;24.20;26.50;;;;;;5089198;28;19920;-66
2022/01/31 09:41:57;;;;;;;;;;;24.20;26.50;;;;;;5089615;28;20009;-66
2022/01/31 09:44:39;;;;;;;;;;;24.30;26.50;;;;;;5087164;28;19980;-68
2022/01/31 09:47:23;;;;;;;;;;;24.30;26.40;;;;;;5082568;28;19928;-67
2022/01/31 09:49:51;;;;;;;;;;;24.30;26.30;;;;;;5090870;28;19931;-68
2022/01/31 09:52:18;;;;;;;;;;;24.30;26.20;;;;;;5088104;28;19928;-66
2022/01/31 09:54:48;;;;;;;;;;;24.30;26.10;;;;;;5089505;28;20014;-67
2022/01/31 09:57:16;;;;;;;;;;;24.40;26.20;;;;;;5084038;28;19956;-65
2022/01/31 09:59:44;;;;;;;;;;;24.40;26.10;;;;;;5072228;28;19966;-66
2022/01/31 10:02:12;;;;;;;;;;;24.40;26.10;;;;;;5071075;28;19971;-67
2022/01/31 10:04:44;;;;;;;;;;;24.40;26.20;;;;;;5070699;28;20404;-65
2022/01/31 10:07:13;;;;;;;;;;;24.40;26.10;;;;;;5082410;28;19920;-64
2022/01/31 10:09:43;;;;;;;;;;;24.40;26.10;;;;;;5089226;28;19920;-65
2022/01/31 10:17:57;;;;;;;;;;;24.40;26.00;;;;;;5091540;28;20054;-66
2022/01/31 10:20:28;;;;;;;;;;;24.50;26.10;;;;;;5111458;28;19920;-66
2022/01/31 10:22:56;;;;;;;;;;;24.50;26.00;;;;;;5110488;28;19949;-66
2022/01/31 10:25:24;;;;;;;;;;;24.50;25.90;;;;;;5111499;28;20442;-70
2022/01/31 10:28:14;;;;;;;;;;;24.50;25.90;;;;;;5103785;28;19919;-66
2022/01/31 10:30:41;;;;;;;;;;;24.50;26.30;;;;;;5091281;28;20300;-65
2022/01/31 10:33:09;;;;;;;;;;;24.50;25.80;;;;;;5090951;28;19955;-69
2022/01/31 10:35:39;;;;;;;;;;;24.50;25.80;;;;;;5091112;28;19989;-66
2022/01/31 10:38:11;;;;;;;;;;;24.50;25.80;;;;;;5089869;28;19923;-65
2022/01/31 10:44:11;;;;;;;;;;;24.50;25.70;;;;;;5090660;28;20359;-65
2022/01/31 10:52:06;;;;;;;;;;;24.60;25.50;;;;;;5088699;28;19959;-65
2022/01/31 10:54:39;;;;;;;;;;;24.60;25.30;;;;;;5086282;28;19940;-64
2022/01/31 10:57:12;;;;;;;;;;;24.70;25.30;;;;;;5082905;28;19924;-64
2022/01/31 10:59:40;;;;;;;;;;;24.70;25.20;;;;;;5083605;28;20026;-68
2022/01/31 11:02:14;;;;;;;;;;;24.70;25.20;;;;;;5088189;28;19924;-68
2022/01/31 11:04:43;;;;;;;;;;;24.70;25.10;;;;;;5088308;28;20320;-65
2022/01/31 11:07:13;;;;;;;;;;;24.70;25.20;;;;;;5093189;28;20529;-64
2022/01/31 11:09:41;;;;;;;;;;;24.70;25.10;;;;;;5068340;28;19950;-69
2022/01/31 11:12:09;;;;;;;;;;;24.70;25.20;;;;;;5084629;28;20304;-67
2022/01/31 11:14:37;;;;;;;;;;;24.70;25.10;;;;;;5085385;28;19920;-68
2022/01/31 11:17:08;;;;;;;;;;;24.70;25.00;;;;;;5087183;28;19993;-68
2022/01/31 11:19:35;;;;;;;;;;;24.70;25.00;;;;;;5087632;28;20006;-68
2022/01/31 11:22:05;;;;;;;;;;;24.70;24.80;;;;;;5083800;28;19973;-67
2022/01/31 11:24:37;;;;;;;;;;;24.70;24.80;;;;;;5088486;28;19942;-66
2022/01/31 11:27:08;;;;;;;;;;;24.70;24.70;;;;;;5089910;28;19920;-70
2022/01/31 11:29:36;;;;;;;;;;;24.70;24.80;;;;;;5088531;28;19927;-68
2022/01/31 11:32:04;;;;;;;;;;;24.60;24.80;;;;;;5088137;28;19966;-69
2022/01/31 11:34:31;;;;;;;;;;;24.60;24.80;;;;;;5087643;28;19920;-70
2022/01/31 11:36:59;;;;;;;;;;;24.60;24.70;;;;;;5090073;28;20007;-69
2022/01/31 11:39:27;;;;;;;;;;;24.60;24.70;;;;;;5090221;28;20030;-69
2022/01/31 11:42:01;;;;;;;;;;;24.60;24.50;;;;;;5072291;28;20014;-64
2022/01/31 11:44:40;;;;;;;;;;;24.60;24.50;;;;;;5090985;28;19955;-64
2022/01/31 11:47:08;;;;;;;;;;;24.50;24.60;;;;;;5082494;28;19981;-65
2022/01/31 11:49:43;;;;;;;;;;;24.50;24.70;;;;;;5089049;28;19927;-65
2022/01/31 11:52:10;;;;;;;;;;;24.60;24.90;;;;;;5090515;28;19924;-64
2022/01/31 11:54:52;;;;;;;;;;;24.50;24.90;;;;;;5070669;28;20426;-65
2022/01/31 11:57:20;;;;;;;;;;;24.50;24.90;;;;;;5083724;28;19931;-66
2022/01/31 11:59:51;;;;;;;;;;;24.60;25.00;;;;;;5068892;28;19924;-65
2022/01/31 12:02:19;;;;;;;;;;;24.50;25.00;;;;;;5088735;28;20834;-67
2022/01/31 12:04:49;;;;;;;;;;;24.60;25.10;;;;;;5088247;28;20373;-64
2022/01/31 12:07:40;;;;;;;;;;;24.50;24.90;;;;;;5080546;28;19924;-66
2022/01/31 12:10:21;;;;;;;;;;;24.50;25.50;;;;;;5088941;28;19946;-66
2022/01/31 12:13:00;;;;;;;;;;;24.50;25.10;;;;;;5088153;28;20411;-66
2022/01/31 12:16:02;;;;;;;;;;;24.50;25.10;;;;;;5098670;28;20432;-66
2022/01/31 12:24:08;;;;;;;;;;;24.50;25.20;;;;;;5089044;28;19920;-69
2022/01/31 12:26:49;;;;;;;;;;;24.50;25.10;;;;;;5081989;28;21598;-65
2022/01/31 12:29:18;;;;;;;;;;;24.50;25.00;;;;;;5103392;28;19920;-66
2022/01/31 12:31:47;;;;;;;;;;;24.50;24.90;;;;;;5109794;28;20292;-65
2022/01/31 12:34:34;;;;;;;;;;;24.50;24.90;;;;;;5088554;28;20320;-65
2022/01/31 12:37:16;;;;;;;;;;;24.50;25.00;;;;;;5067465;28;20348;-64
2022/01/31 12:39:50;;;;;;;;;;;24.50;24.90;;;;;;5087422;28;20045;-64
2022/01/31 12:42:44;;;;;;;;;;;24.50;25.00;;;;;;5102182;28;19923;-66
2022/01/31 12:45:12;;;;;;;;;;;24.50;25.00;;;;;;5070191;28;19959;-64
2022/01/31 12:48:02;;;;;;;;;;;24.50;25.00;;;;;;5081312;28;19924;-64
2022/01/31 12:50:29;;;;;;;;;;;24.50;25.00;;;;;;5089443;28;20502;-65
2022/01/31 12:52:57;;;;;;;;;;;24.40;25.00;;;;;;5087725;28;19939;-70
2022/01/31 12:55:27;;;;;;;;;;;24.50;25.00;;;;;;5089150;28;20238;-68
2022/01/31 13:04:27;;;;;;;;;;;24.40;25.20;;;;;;5086393;28;20037;-67
2022/01/31 13:07:01;;;;;;;;;;;24.40;25.80;;;;;;5083831;28;20107;-69
2022/01/31 13:09:49;;;;;;;;;;;24.40;25.40;;;;;;5089051;28;20034;-66
2022/01/31 13:12:17;;;;;;;;;;;24.40;25.30;;;;;;5091890;28;19978;-70
2022/01/31 13:14:48;;;;;;;;;;;24.40;25.50;;;;;;5091067;28;20332;-64
2022/01/31 13:17:17;;;;;;;;;;;24.30;25.50;;;;;;5088679;28;19928;-66
2022/01/31 13:19:49;;;;;;;;;;;24.30;25.50;;;;;;5089640;28;20362;-66
2022/01/31 13:22:23;;;;;;;;;;;24.40;25.70;;;;;;5091003;28;20379;-65
2022/01/31 13:24:53;;;;;;;;;;;24.30;25.70;;;;;;5093183;28;20327;-67
2022/01/31 13:27:28;;;;;;;;;;;24.40;25.70;;;;;;5090656;28;19920;-66
2022/01/31 13:30:08;;;;;;;;;;;24.30;25.60;;;;;;5091711;28;19923;-65
2022/01/31 13:32:36;;;;;;;;;;;24.30;25.60;;;;;;5091729;28;19958;-69
2022/01/31 13:35:09;;;;;;;;;;;24.30;25.50;;;;;;5092400;28;19959;-66
2022/01/31 13:37:39;;;;;;;;;;;24.30;25.60;;;;;;5090060;28;19920;-63
2022/01/31 13:40:08;;;;;;;;;;;24.30;25.70;;;;;;5071520;28;19920;-69
2022/01/31 13:42:38;;;;;;;;;;;24.30;25.70;;;;;;5071073;28;20381;-66
2022/01/31 13:45:11;;;;;;;;;;;24.30;25.80;;;;;;5071669;28;19920;-66
2022/01/31 13:47:56;;;;;;;;;;;24.30;25.80;;;;;;5072905;28;20007;-68
2022/01/31 13:50:28;;;;;;;;;;;24.20;25.70;;;;;;5071152;28;19964;-73
2022/01/31 13:53:01;;;;;;;;;;;24.20;25.70;;;;;;5086559;28;19921;-65
2022/01/31 13:55:29;;;;;;;;;;;24.20;25.70;;;;;;5072079;28;19959;-65
2022/01/31 13:57:56;;;;;;;;;;;24.10;25.60;;;;;;5075534;28;20022;-65
2022/01/31 14:00:23;;;;;;;;;;;24.20;25.70;;;;;;5092080;28;19982;-67
2022/01/31 14:02:58;;;;;;;;;;;24.10;25.50;;;;;;5091483;28;19963;-65
2022/01/31 14:05:26;;;;;;;;;;;24.10;25.50;;;;;;5090976;28;20377;-66
2022/01/31 14:08:07;;;;;;;;;;;24.10;25.60;;;;;;5087803;28;19967;-68
2022/01/31 14:10:36;;;;;;;;;;;24.10;25.60;;;;;;5080599;28;19932;-68
2022/01/31 14:13:16;;;;;;;;;;;24.10;25.60;;;;;;5085295;28;19919;-66
2022/01/31 14:15:46;;;;;;;;;;;24.10;25.60;;;;;;5083849;28;20070;-66
2022/01/31 14:18:15;;;;;;;;;;;24.00;25.70;;;;;;5083438;28;19920;-67
2022/01/31 14:20:43;;;;;;;;;;;24.00;25.70;;;;;;5082218;28;19928;-66
2022/01/31 14:23:11;;;;;;;;;;;24.00;25.70;;;;;;5083631;28;19920;-65
2022/01/31 14:25:39;;;;;;;;;;;24.00;25.70;;;;;;5085665;28;19977;-66
2022/01/31 14:28:07;;;;;;;;;;;24.00;25.70;;;;;;5085702;28;20288;-66
2022/01/31 14:30:34;;;;;;;;;;;24.00;25.70;;;;;;5080888;28;19985;-67
2022/01/31 14:33:03;;;;;;;;;;;24.00;25.70;;;;;;5084398;28;20006;-66
2022/01/31 14:35:30;;;;;;;;;;;24.00;25.70;;;;;;5086198;28;20014;-66
2022/01/31 14:41:33;;;;;;;;;;;24.00;25.70;;;;;;5088275;28;19985;-67
2022/01/31 14:49:42;;;;;;;;;;;23.90;26.00;;;;;;5089586;28;20003;-65
2022/01/31 14:52:09;;;;;;;;;;;23.90;26.00;;;;;;5084658;28;20460;-65
2022/01/31 14:54:38;;;;;;;;;;;23.90;26.00;;;;;;5087069;28;19976;-67
2022/01/31 14:57:06;;;;;;;;;;;23.90;26.00;;;;;;5089373;28;19927;-65
2022/01/31 14:59:34;;;;;;;;;;;23.90;26.00;;;;;;5090641;28;19970;-65
2022/01/31 15:02:01;;;;;;;;;;;23.90;26.00;;;;;;5091120;28;19927;-65
2022/01/31 15:04:48;;;;;;;;;;;23.90;26.00;;;;;;5085358;28;19928;-67
2022/01/31 15:07:15;;;;;;;;;;;23.90;26.00;;;;;;5087015;28;19956;-65
2022/01/31 15:09:42;;;;;;;;;;;23.90;26.00;;;;;;5082993;28;20434;-67
2022/01/31 15:12:10;;;;;;;;;;;23.80;26.00;;;;;;5085118;28;19968;-66
2022/01/31 15:14:37;;;;;;;;;;;23.80;25.90;;;;;;5085705;28;20010;-67
2022/01/31 15:17:06;;;;;;;;;;;23.80;26.00;;;;;;5085289;28;20373;-65
2022/01/31 15:19:34;;;;;;;;;;;23.80;25.90;;;;;;5085590;28;19920;-66